Time;durP1;ratioP1;P1;durP2;ratioP2;P2;SDS_P1;SDS_P2;PMS_P1;PMS_P2;Temp;Humidity;BMP_temperature;BMP_pressure;BME280_temperature;BME280_humidity;BME280_pressure;Samples;Min_cycle;Max_cycle;Signal;HPM_P1;HPM_P2
2022/12/26 00:01:33;;;;;;;19.45;4.15;;;;;;;;;;5034469;28;20080;-66
2022/12/26 00:03:59;;;;;;;19.15;3.40;;;;;;;;;;5035291;28;20385;-66
2022/12/26 00:06:26;;;;;;;21.45;3.85;;;;;;;;;;5034513;28;20034;-67
2022/12/26 00:08:52;;;;;;;21.05;4.07;;;;;;;;;;5035039;28;20117;-67
2022/12/26 00:11:19;;;;;;;23.42;4.18;;;;;;;;;;5035113;28;20104;-66
2022/12/26 00:13:45;;;;;;;24.55;3.28;;;;;;;;;;5034368;28;20344;-66
2022/12/26 00:16:13;;;;;;;24.15;3.90;;;;;;;;;;5034869;28;20021;-66
2022/12/26 00:18:40;;;;;;;24.15;3.72;;;;;;;;;;5034913;28;20026;-66
2022/12/26 00:21:06;;;;;;;22.65;5.13;;;;;;;;;;5032864;28;20477;-66
2022/12/26 00:23:33;;;;;;;21.50;3.55;;;;;;;;;;5034757;28;20026;-66
2022/12/26 00:26:10;;;;;;;21.17;4.18;;;;;;;;;;5034758;28;20025;-66
2022/12/26 00:28:37;;;;;;;29.35;4.35;;;;;;;;;;5034575;28;20458;-66
2022/12/26 00:31:05;;;;;;;35.47;3.45;;;;;;;;;;5034581;28;20025;-66
2022/12/26 00:33:31;;;;;;;22.23;4.55;;;;;;;;;;5034517;28;20129;-66
2022/12/26 00:36:06;;;;;;;30.23;4.53;;;;;;;;;;5034005;28;20037;-66
2022/12/26 00:38:33;;;;;;;25.15;3.35;;;;;;;;;;5034680;28;20064;-66
2022/12/26 00:41:00;;;;;;;29.55;4.15;;;;;;;;;;5034221;28;20540;-66
2022/12/26 00:43:26;;;;;;;22.63;3.53;;;;;;;;;;5034624;28;20478;-66
2022/12/26 00:45:52;;;;;;;27.27;4.03;;;;;;;;;;5034107;28;20018;-66
2022/12/26 00:48:18;;;;;;;24.92;5.68;;;;;;;;;;5034373;28;20494;-66
2022/12/26 00:50:44;;;;;;;27.25;3.67;;;;;;;;;;5033740;28;20052;-66
2022/12/26 00:53:11;;;;;;;20.48;3.45;;;;;;;;;;5034270;28;20025;-66
2022/12/26 00:55:37;;;;;;;21.45;4.07;;;;;;;;;;5033993;28;20025;-66
2022/12/26 00:58:03;;;;;;;18.58;3.40;;;;;;;;;;5034350;28;20033;-67
2022/12/26 01:00:29;;;;;;;24.60;2.95;;;;;;;;;;5033961;28;20013;-66
2022/12/26 01:02:56;;;;;;;19.45;3.63;;;;;;;;;;5034163;28;20032;-66
2022/12/26 01:05:22;;;;;;;31.50;4.63;;;;;;;;;;5033426;28;20021;-66
2022/12/26 01:07:48;;;;;;;17.35;2.97;;;;;;;;;;5033844;28;20044;-66
2022/12/26 01:10:14;;;;;;;20.58;3.25;;;;;;;;;;5033635;28;20010;-66
2022/12/26 01:12:40;;;;;;;26.08;3.85;;;;;;;;;;5033546;28;20029;-66
2022/12/26 01:15:07;;;;;;;22.98;2.95;;;;;;;;;;5033526;28;20040;-66
2022/12/26 01:17:33;;;;;;;17.02;2.50;;;;;;;;;;5033777;28;20555;-66
2022/12/26 01:19:59;;;;;;;21.33;3.05;;;;;;;;;;5031837;28;20072;-66
2022/12/26 01:22:26;;;;;;;25.30;3.10;;;;;;;;;;5033893;28;20394;-66
2022/12/26 01:24:53;;;;;;;21.48;2.92;;;;;;;;;;5032056;28;20026;-66
2022/12/26 01:27:19;;;;;;;19.70;2.63;;;;;;;;;;5033604;28;20040;-66
2022/12/26 01:29:45;;;;;;;30.05;4.18;;;;;;;;;;5032984;28;20048;-66
2022/12/26 01:32:11;;;;;;;29.38;3.83;;;;;;;;;;5033745;28;20025;-66
2022/12/26 01:34:37;;;;;;;19.98;2.50;;;;;;;;;;5032846;28;20421;-66
2022/12/26 01:37:03;;;;;;;19.50;3.13;;;;;;;;;;5033581;28;20052;-66
2022/12/26 01:39:30;;;;;;;22.08;3.75;;;;;;;;;;5033272;28;20025;-66
2022/12/26 01:41:56;;;;;;;13.77;2.67;;;;;;;;;;5033395;28;20041;-66
2022/12/26 01:44:40;;;;;;;24.50;3.45;;;;;;;;;;5020283;28;20509;-66
2022/12/26 01:47:07;;;;;;;21.58;2.90;;;;;;;;;;5032712;28;20033;-66
2022/12/26 01:49:37;;;;;;;11.30;2.33;;;;;;;;;;5032774;28;20052;-66
2022/12/26 01:52:05;;;;;;;26.80;4.68;;;;;;;;;;5032545;28;20504;-66
2022/12/26 01:54:35;;;;;;;16.95;2.10;;;;;;;;;;5033311;28;20072;-66
2022/12/26 01:57:04;;;;;;;24.70;3.28;;;;;;;;;;5032861;28;20037;-66
2022/12/26 01:59:31;;;;;;;25.85;5.35;;;;;;;;;;5033103;28;20022;-66
2022/12/26 02:01:58;;;;;;;15.25;2.50;;;;;;;;;;5031009;28;20099;-66
2022/12/26 02:07:13;;;;;;;19.58;2.60;;;;;;;;;;5021882;28;20048;-66
2022/12/26 02:09:39;;;;;;;11.45;3.45;;;;;;;;;;5032597;28;20079;-66
2022/12/26 02:12:08;;;;;;;14.07;2.58;;;;;;;;;;5032839;28;20037;-66
2022/12/26 02:14:35;;;;;;;17.10;2.50;;;;;;;;;;5031960;28;20047;-66
2022/12/26 02:17:02;;;;;;;14.05;2.42;;;;;;;;;;5031863;28;20413;-66
2022/12/26 02:19:48;;;;;;;21.55;3.65;;;;;;;;;;5031010;28;20116;-66
2022/12/26 02:22:23;;;;;;;22.27;2.95;;;;;;;;;;5032535;28;20484;-66
2022/12/26 02:24:55;;;;;;;17.65;2.42;;;;;;;;;;5032148;28;20025;-66
2022/12/26 02:27:26;;;;;;;23.73;2.65;;;;;;;;;;5032379;28;20061;-66
2022/12/26 02:29:52;;;;;;;14.77;2.83;;;;;;;;;;5019762;28;20037;-66
2022/12/26 02:32:21;;;;;;;15.32;2.33;;;;;;;;;;5032243;28;20026;-66
2022/12/26 02:34:53;;;;;;;17.25;2.50;;;;;;;;;;5032276;28;20087;-66
2022/12/26 02:37:20;;;;;;;;;;;;;;;;;;5032328;28;20104;-66
2022/12/26 02:40:09;;;;;;;22.80;3.10;;;;;;;;;;5032479;28;19955;-66
2022/12/26 02:42:54;;;;;;;12.50;2.30;;;;;;;;;;5021989;28;20029;-66
2022/12/26 02:48:31;;;;;;;13.60;1.92;;;;;;;;;;5032072;28;20056;-66
2022/12/26 03:13:53;;;;;;;15.23;2.47;;;;;;;;;;5031197;28;20128;-66
2022/12/26 03:19:07;;;;;;;22.75;3.22;;;;;;;;;;5027119;28;20512;-66
2022/12/26 03:21:35;;;;;;;19.23;2.83;;;;;;;;;;5030417;28;20056;-66
2022/12/26 03:24:04;;;;;;;23.58;2.47;;;;;;;;;;5031560;28;20029;-66
2022/12/26 03:26:42;;;;;;;23.05;3.05;;;;;;;;;;5031234;28;20022;-66
2022/12/26 03:31:58;;;;;;;23.15;3.35;;;;;;;;;;5035242;28;20473;-66
2022/12/26 03:34:24;;;;;;;25.80;2.97;;;;;;;;;;5035318;28;20100;-66
2022/12/26 03:37:09;;;;;;;15.13;2.90;;;;;;;;;;5034185;28;20029;-66
2022/12/26 04:19:42;;;;;;;17.58;3.72;;;;;;;;;;5041985;28;20040;-66
2022/12/26 04:44:27;;;;;;;16.88;3.33;;;;;;;;;;5034316;28;20044;-66
2022/12/26 04:46:53;;;;;;;20.70;2.55;;;;;;;;;;5034683;28;20025;-66
2022/12/26 04:52:06;;;;;;;20.52;3.00;;;;;;;;;;5032654;28;20123;-66
2022/12/26 04:54:33;;;;;;;24.38;3.78;;;;;;;;;;5033985;28;20028;-66
2022/12/26 04:56:59;;;;;;;13.98;2.58;;;;;;;;;;5033691;28;20486;-66
2022/12/26 04:59:25;;;;;;;13.60;2.60;;;;;;;;;;5034011;28;20014;-66
2022/12/26 05:10:12;;;;;;;17.05;2.38;;;;;;;;;;5034011;28;20029;-66
2022/12/26 05:12:38;;;;;;;17.02;2.50;;;;;;;;;;5036291;28;20448;-66
2022/12/26 05:15:05;;;;;;;12.43;2.22;;;;;;;;;;5034517;28;20117;-66
2022/12/26 05:28:40;;;;;;;16.58;2.78;;;;;;;;;;5033403;28;20040;-67
2022/12/26 05:28:52;;;;;;;18.13;2.88;;;;;;;;;;5032477;28;20502;-67
2022/12/26 05:31:18;;;;;;;16.77;2.33;;;;;;;;;;5033352;28;20041;-66
2022/12/26 05:36:31;;;;;;;14.60;2.10;;;;;;;;;;5028046;28;20127;-66
2022/12/26 05:38:57;;;;;;;19.15;2.35;;;;;;;;;;5027747;28;20017;-66
2022/12/26 05:41:23;;;;;;;13.85;2.45;;;;;;;;;;5027940;28;20125;-66
2022/12/26 05:43:49;;;;;;;14.20;2.00;;;;;;;;;;5033488;28;20018;-66
2022/12/26 05:46:15;;;;;;;15.05;2.30;;;;;;;;;;5033024;28;20393;-66
2022/12/26 05:48:42;;;;;;;15.25;2.30;;;;;;;;;;5033372;28;20584;-66
2022/12/26 05:51:08;;;;;;;13.30;2.17;;;;;;;;;;5032028;28;20040;-66
2022/12/26 05:53:34;;;;;;;21.23;2.42;;;;;;;;;;5033354;28;20026;-66
2022/12/26 05:56:07;;;;;;;12.68;2.53;;;;;;;;;;5032662;28;20026;-66
2022/12/26 05:58:33;;;;;;;12.32;2.40;;;;;;;;;;5032824;28;20496;-66
2022/12/26 06:01:11;;;;;;;34.47;6.03;;;;;;;;;;5032974;28;20513;-66
2022/12/26 06:03:38;;;;;;;17.58;2.92;;;;;;;;;;5032799;28;20033;-66
2022/12/26 06:06:05;;;;;;;18.63;2.70;;;;;;;;;;5032627;28;20025;-66
2022/12/26 06:08:31;;;;;;;21.27;2.47;;;;;;;;;;5032938;28;20119;-66
2022/12/26 06:10:58;;;;;;;14.73;2.08;;;;;;;;;;5031056;28;20408;-66
2022/12/26 06:13:24;;;;;;;13.52;1.90;;;;;;;;;;5032368;28;20469;-66
2022/12/26 06:15:50;;;;;;;13.57;2.42;;;;;;;;;;5032480;28;20105;-66
2022/12/26 06:18:16;;;;;;;12.35;2.10;;;;;;;;;;5032641;28;20126;-66
2022/12/26 06:20:42;;;;;;;8.82;2.25;;;;;;;;;;5032558;28;20032;-66
2022/12/26 06:23:08;;;;;;;17.15;2.47;;;;;;;;;;5032613;28;20117;-66
2022/12/26 06:25:34;;;;;;;13.80;2.30;;;;;;;;;;5031911;28;20021;-66
2022/12/26 06:28:00;;;;;;;9.98;2.28;;;;;;;;;;5032404;28;20051;-66
2022/12/26 06:30:26;;;;;;;12.43;2.35;;;;;;;;;;5030608;28;20109;-66
2022/12/26 06:32:53;;;;;;;15.07;2.38;;;;;;;;;;5032313;28;20109;-66
2022/12/26 06:35:19;;;;;;;12.93;2.92;;;;;;;;;;5031990;28;20381;-66
2022/12/26 06:37:45;;;;;;;11.27;2.25;;;;;;;;;;5032382;28;20395;-66
2022/12/26 06:40:13;;;;;;;13.38;2.17;;;;;;;;;;5031909;28;20486;-66
2022/12/26 06:42:39;;;;;;;12.15;2.50;;;;;;;;;;5031963;28;20052;-66
2022/12/26 06:45:05;;;;;;;17.63;3.42;;;;;;;;;;5032101;28;20037;-66
2022/12/26 06:47:32;;;;;;;13.43;2.88;;;;;;;;;;5032330;28;20036;-66
2022/12/26 06:49:58;;;;;;;14.55;2.00;;;;;;;;;;5024062;28;20087;-66
2022/12/26 06:52:24;;;;;;;26.40;3.00;;;;;;;;;;5029149;28;20156;-66
2022/12/26 06:54:50;;;;;;;16.10;2.25;;;;;;;;;;5030972;28;20509;-66
2022/12/26 06:57:16;;;;;;;11.85;2.05;;;;;;;;;;5031876;28;20065;-66
2022/12/26 06:59:42;;;;;;;13.75;3.42;;;;;;;;;;5031830;28;20052;-66
2022/12/26 07:02:09;;;;;;;15.88;2.42;;;;;;;;;;5031790;28;20021;-66
2022/12/26 07:04:35;;;;;;;10.18;2.20;;;;;;;;;;5029587;28;20044;-66
2022/12/26 07:07:01;;;;;;;13.20;2.47;;;;;;;;;;5031532;28;20040;-66
2022/12/26 07:09:29;;;;;;;10.50;1.70;;;;;;;;;;5031449;28;20384;-66
2022/12/26 07:11:56;;;;;;;14.70;2.60;;;;;;;;;;5030712;28;20037;-65
2022/12/26 07:14:22;;;;;;;9.70;2.03;;;;;;;;;;5027873;28;20040;-65
2022/12/26 07:16:48;;;;;;;12.55;2.38;;;;;;;;;;5031770;28;20036;-65
2022/12/26 07:19:15;;;;;;;12.50;2.22;;;;;;;;;;5031588;28;20045;-65
2022/12/26 07:21:42;;;;;;;10.77;2.78;;;;;;;;;;5031447;28;20029;-65
2022/12/26 07:24:19;;;;;;;18.42;2.35;;;;;;;;;;5031470;28;20048;-65
2022/12/26 07:26:46;;;;;;;15.43;2.55;;;;;;;;;;5031458;28;20468;-65
2022/12/26 07:29:12;;;;;;;12.90;2.88;;;;;;;;;;5031701;28;20029;-65
2022/12/26 07:31:38;;;;;;;10.07;2.60;;;;;;;;;;5031422;28;20084;-65
2022/12/26 07:34:04;;;;;;;19.02;2.33;;;;;;;;;;5031651;28;20053;-65
2022/12/26 07:36:30;;;;;;;12.13;2.60;;;;;;;;;;5018380;28;20058;-65
2022/12/26 07:38:57;;;;;;;25.52;2.90;;;;;;;;;;5031564;28;20485;-65
2022/12/26 07:44:11;;;;;;;14.45;2.65;;;;;;;;;;5031534;28;20117;-65
2022/12/26 07:46:37;;;;;;;13.20;3.25;;;;;;;;;;5031245;28;20017;-65
2022/12/26 07:49:03;;;;;;;13.10;2.58;;;;;;;;;;5031585;28;20029;-65
2022/12/26 07:51:30;;;;;;;12.35;3.40;;;;;;;;;;5030943;28;20482;-65
2022/12/26 07:53:56;;;;;;;26.80;3.40;;;;;;;;;;5029911;28;20541;-65
2022/12/26 07:56:22;;;;;;;20.83;2.80;;;;;;;;;;5030778;28;20017;-65
2022/12/26 07:58:48;;;;;;;23.75;3.38;;;;;;;;;;5022629;28;20460;-65
2022/12/26 08:01:15;;;;;;;11.25;2.35;;;;;;;;;;5030980;28;20096;-66
2022/12/26 08:03:41;;;;;;;22.75;3.05;;;;;;;;;;5027240;28;20071;-65
2022/12/26 08:06:09;;;;;;;16.10;3.03;;;;;;;;;;5030440;28;20037;-65
2022/12/26 08:08:36;;;;;;;23.13;2.95;;;;;;;;;;5015971;28;20044;-65
2022/12/26 08:11:03;;;;;;;19.48;2.55;;;;;;;;;;5016567;28;20021;-65
2022/12/26 08:13:29;;;;;;;17.70;2.67;;;;;;;;;;5030903;28;20021;-66
2022/12/26 08:15:56;;;;;;;16.58;2.50;;;;;;;;;;5034428;28;20033;-66
2022/12/26 08:18:22;;;;;;;18.25;2.53;;;;;;;;;;5034669;28;20036;-66
2022/12/26 08:20:48;;;;;;;20.35;2.92;;;;;;;;;;5034374;28;20389;-66
2022/12/26 08:23:15;;;;;;;17.55;2.47;;;;;;;;;;5034800;28;20036;-67
2022/12/26 08:25:41;;;;;;;14.10;2.63;;;;;;;;;;5034474;28;20025;-67
2022/12/26 08:28:07;;;;;;;13.82;2.30;;;;;;;;;;5034886;28;20030;-66
2022/12/26 08:30:33;;;;;;;9.82;2.53;;;;;;;;;;5034278;28;20485;-66
2022/12/26 08:32:59;;;;;;;13.82;2.25;;;;;;;;;;5025200;28;20073;-67
2022/12/26 08:35:26;;;;;;;14.32;2.65;;;;;;;;;;5031600;28;20021;-66
2022/12/26 08:37:52;;;;;;;20.63;2.50;;;;;;;;;;5025302;28;20125;-66
2022/12/26 08:40:18;;;;;;;16.20;3.00;;;;;;;;;;5021932;28;20474;-67
2022/12/26 08:42:44;;;;;;;22.75;3.10;;;;;;;;;;5033714;28;20025;-66
2022/12/26 08:45:10;;;;;;;13.13;2.45;;;;;;;;;;5033300;28;20390;-66
2022/12/26 08:47:36;;;;;;;12.27;2.60;;;;;;;;;;5027804;28;20042;-66
2022/12/26 08:50:02;;;;;;;12.07;3.20;;;;;;;;;;5028706;28;20057;-66
2022/12/26 08:52:28;;;;;;;14.27;3.38;;;;;;;;;;5029030;28;20525;-66
2022/12/26 08:54:55;;;;;;;18.52;3.75;;;;;;;;;;5028906;28;20037;-66
2022/12/26 08:57:21;;;;;;;16.83;3.53;;;;;;;;;;5018735;28;20429;-66
2022/12/26 08:59:48;;;;;;;16.75;3.30;;;;;;;;;;5029389;28;20474;-66
2022/12/26 09:02:14;;;;;;;18.83;5.10;;;;;;;;;;5028549;28;20022;-66
2022/12/26 09:04:40;;;;;;;18.73;2.88;;;;;;;;;;5026129;28;20033;-66
2022/12/26 09:07:07;;;;;;;14.00;3.13;;;;;;;;;;5016897;28;20120;-66
2022/12/26 09:09:34;;;;;;;12.02;3.50;;;;;;;;;;5028265;28;20497;-68
2022/12/26 09:12:00;;;;;;;12.52;3.17;;;;;;;;;;5021996;28;20065;-66
2022/12/26 09:14:29;;;;;;;25.15;3.75;;;;;;;;;;5023310;28;20073;-66
2022/12/26 09:16:55;;;;;;;21.33;3.63;;;;;;;;;;5027905;28;20025;-65
2022/12/26 09:19:21;;;;;;;21.08;3.80;;;;;;;;;;5031727;28;20017;-65
2022/12/26 09:21:48;;;;;;;17.27;3.35;;;;;;;;;;5031834;28;20028;-66
2022/12/26 09:24:15;;;;;;;15.05;3.30;;;;;;;;;;5027454;28;20017;-66
2022/12/26 09:26:41;;;;;;;17.13;3.25;;;;;;;;;;5021105;28;20032;-66
2022/12/26 09:29:09;;;;;;;19.45;3.35;;;;;;;;;;5032050;28;20026;-66
2022/12/26 09:31:35;;;;;;;17.95;3.63;;;;;;;;;;5022423;28;20032;-66
2022/12/26 09:34:02;;;;;;;28.83;4.18;;;;;;;;;;5025160;28;20049;-66
2022/12/26 09:36:29;;;;;;;17.80;3.42;;;;;;;;;;5028908;28;20053;-66
2022/12/26 09:38:56;;;;;;;11.32;2.65;;;;;;;;;;5029608;28;20405;-66
2022/12/26 09:41:31;;;;;;;8.57;2.17;;;;;;;;;;5031458;28;20513;-66
2022/12/26 09:43:57;;;;;;;19.40;2.53;;;;;;;;;;5021227;28;20038;-66
2022/12/26 09:46:35;;;;;;;19.17;2.70;;;;;;;;;;5021278;28;20018;-66
2022/12/26 09:49:09;;;;;;;15.15;2.50;;;;;;;;;;5026197;28;20026;-66
2022/12/26 09:51:37;;;;;;;18.48;3.95;;;;;;;;;;5031553;28;20104;-66
2022/12/26 09:54:05;;;;;;;14.15;2.75;;;;;;;;;;5028355;28;20009;-66
2022/12/26 09:56:33;;;;;;;20.27;2.92;;;;;;;;;;5029508;28;20026;-66
2022/12/26 09:59:06;;;;;;;15.52;2.72;;;;;;;;;;5031233;28;20552;-66
2022/12/26 10:01:36;;;;;;;11.43;2.58;;;;;;;;;;5029518;28;20076;-66
2022/12/26 10:04:07;;;;;;;13.43;3.05;;;;;;;;;;5022727;28;20022;-65
2022/12/26 10:06:38;;;;;;;9.60;2.83;;;;;;;;;;5030417;28;20104;-65
2022/12/26 10:09:10;;;;;;;12.95;2.50;;;;;;;;;;5019517;28;20028;-65
2022/12/26 10:11:39;;;;;;;13.90;3.33;;;;;;;;;;5023693;28;20437;-65
2022/12/26 10:14:16;;;;;;;15.52;2.80;;;;;;;;;;5017359;28;20256;-65
2022/12/26 10:16:42;;;;;;;11.38;2.70;;;;;;;;;;5029881;28;20032;-65
2022/12/26 10:19:35;;;;;;;14.00;2.40;;;;;;;;;;5016285;28;20080;-65
2022/12/26 10:22:16;;;;;;;13.27;3.65;;;;;;;;;;5027043;28;20034;-65
2022/12/26 10:24:43;;;;;;;15.02;2.33;;;;;;;;;;5030707;28;20076;-65
2022/12/26 10:27:14;;;;;;;12.90;2.20;;;;;;;;;;5029766;28;20108;-65
2022/12/26 10:29:42;;;;;;;15.45;3.20;;;;;;;;;;5027617;28;20080;-65
2022/12/26 10:32:12;;;;;;;6.72;1.67;;;;;;;;;;5028609;28;20101;-65
2022/12/26 10:34:43;;;;;;;13.10;3.35;;;;;;;;;;5017109;28;20081;-65
2022/12/26 10:37:12;;;;;;;10.50;1.77;;;;;;;;;;5015536;28;20033;-65
2022/12/26 10:39:56;;;;;;;12.45;1.90;;;;;;;;;;5023561;28;20064;-65
2022/12/26 10:42:25;;;;;;;13.65;1.70;;;;;;;;;;5026920;28;20037;-65
2022/12/26 10:44:52;;;;;;;11.25;3.20;;;;;;;;;;5019752;28;20018;-65
2022/12/26 10:47:25;;;;;;;7.65;1.70;;;;;;;;;;5030927;28;20036;-64
2022/12/26 10:49:52;;;;;;;10.20;1.63;;;;;;;;;;5031557;28;20406;-65
2022/12/26 10:52:26;;;;;;;6.25;1.50;;;;;;;;;;5027726;28;20021;-65
2022/12/26 10:54:54;;;;;;;7.68;1.42;;;;;;;;;;5029456;28;20096;-65
2022/12/26 10:57:21;;;;;;;12.70;1.75;;;;;;;;;;5022664;28;20033;-65
2022/12/26 10:59:48;;;;;;;9.27;1.27;;;;;;;;;;5029289;28;20032;-65
2022/12/26 11:02:25;;;;;;;6.45;1.83;;;;;;;;;;5029509;28;20035;-65
2022/12/26 11:04:59;;;;;;;9.00;2.13;;;;;;;;;;5025382;28;20029;-65
2022/12/26 11:07:29;;;;;;;13.18;1.75;;;;;;;;;;5030092;28;20043;-65
2022/12/26 11:09:57;;;;;;;9.05;1.42;;;;;;;;;;5030139;28;20029;-66
2022/12/26 11:12:41;;;;;;;14.20;2.17;;;;;;;;;;5028667;28;20038;-66
2022/12/26 11:15:27;;;;;;;8.40;1.77;;;;;;;;;;5016770;28;20061;-66
2022/12/26 11:17:55;;;;;;;8.07;1.63;;;;;;;;;;5026036;28;20390;-66
2022/12/26 11:20:26;;;;;;;8.88;2.08;;;;;;;;;;5028696;28;20112;-66
2022/12/26 11:22:53;;;;;;;8.10;1.60;;;;;;;;;;5031033;28;20025;-66
2022/12/26 11:25:19;;;;;;;10.95;2.47;;;;;;;;;;5030361;28;20476;-66
2022/12/26 11:27:47;;;;;;;13.20;2.35;;;;;;;;;;5024919;28;20026;-66
2022/12/26 11:30:13;;;;;;;15.05;1.90;;;;;;;;;;5030456;28;20037;-66
2022/12/26 11:32:44;;;;;;;13.10;2.50;;;;;;;;;;5028478;28;20018;-67
2022/12/26 11:35:21;;;;;;;13.20;1.77;;;;;;;;;;5027681;28;20029;-66
2022/12/26 11:37:50;;;;;;;9.90;1.90;;;;;;;;;;5027433;28;20025;-66
2022/12/26 11:40:32;;;;;;;13.52;4.13;;;;;;;;;;5027247;28;20048;-66
2022/12/26 11:43:00;;;;;;;8.63;1.98;;;;;;;;;;5026960;28;20029;-66
2022/12/26 11:45:28;;;;;;;13.05;2.28;;;;;;;;;;5027474;28;20398;-66
2022/12/26 11:47:55;;;;;;;7.40;1.70;;;;;;;;;;5031006;28;20025;-66
2022/12/26 11:50:24;;;;;;;7.88;1.80;;;;;;;;;;5029691;28;20063;-66
2022/12/26 11:52:56;;;;;;;8.35;1.83;;;;;;;;;;5034411;28;20041;-66
2022/12/26 11:55:28;;;;;;;7.05;1.52;;;;;;;;;;5034055;28;20378;-66
2022/12/26 11:57:58;;;;;;;11.23;1.80;;;;;;;;;;5031636;28;20033;-66
2022/12/26 12:00:26;;;;;;;14.23;1.92;;;;;;;;;;5034639;28;20108;-66
2022/12/26 12:02:52;;;;;;;16.00;1.67;;;;;;;;;;5033889;28;20450;-66
2022/12/26 12:05:36;;;;;;;10.88;1.98;;;;;;;;;;5033779;28;20022;-66
2022/12/26 12:08:17;;;;;;;12.73;2.20;;;;;;;;;;5019716;28;20079;-66
2022/12/26 12:10:47;;;;;;;7.68;1.98;;;;;;;;;;5030011;28;20041;-66
2022/12/26 12:13:31;;;;;;;15.50;2.10;;;;;;;;;;5029409;28;20049;-66
2022/12/26 12:16:04;;;;;;;9.80;1.90;;;;;;;;;;5032939;28;20398;-66
2022/12/26 12:18:33;;;;;;;12.40;3.45;;;;;;;;;;5032795;28;20500;-66
2022/12/26 12:21:08;;;;;;;19.80;5.40;;;;;;;;;;5027935;28;20037;-66
2022/12/26 12:24:04;;;;;;;16.15;3.70;;;;;;;;;;5034079;28;20026;-66
2022/12/26 12:26:33;;;;;;;13.32;3.60;;;;;;;;;;5024593;28;20125;-66
2022/12/26 12:29:02;;;;;;;18.45;4.95;;;;;;;;;;5034061;28;20025;-66
2022/12/26 12:31:29;;;;;;;21.40;4.07;;;;;;;;;;5028652;28;20099;-65
2022/12/26 12:34:04;;;;;;;16.98;3.95;;;;;;;;;;5026419;28;20064;-66
2022/12/26 12:36:41;;;;;;;15.50;2.30;;;;;;;;;;5026493;28;20029;-65
2022/12/26 12:39:11;;;;;;;5.78;1.92;;;;;;;;;;5022421;28;20503;-65
2022/12/26 12:41:44;;;;;;;14.43;2.05;;;;;;;;;;5018953;28;20025;-65
2022/12/26 12:44:10;;;;;;;10.15;2.53;;;;;;;;;;5019601;28;20029;-66
2022/12/26 12:46:57;;;;;;;9.07;2.58;;;;;;;;;;5022186;28;20040;-66
2022/12/26 12:49:35;;;;;;;13.50;2.35;;;;;;;;;;5047814;28;20575;-66
2022/12/26 12:52:15;;;;;;;13.40;2.00;;;;;;;;;;5047638;28;20045;-66
2022/12/26 12:54:52;;;;;;;6.00;2.00;;;;;;;;;;5048561;28;20516;-66
2022/12/26 12:57:24;;;;;;;17.00;3.17;;;;;;;;;;5049563;28;20119;-66
2022/12/26 13:00:09;;;;;;;14.10;2.15;;;;;;;;;;5049517;28;20473;-66
2022/12/26 13:02:44;;;;;;;8.95;1.77;;;;;;;;;;5050921;28;20037;-66
2022/12/26 13:05:20;;;;;;;10.13;1.95;;;;;;;;;;5048137;28;20048;-66
2022/12/26 13:07:50;;;;;;;15.95;2.42;;;;;;;;;;5050436;28;20040;-66
2022/12/26 13:10:20;;;;;;;8.40;1.63;;;;;;;;;;5049845;28;20048;-66
2022/12/26 13:12:47;;;;;;;12.25;2.08;;;;;;;;;;5050475;28;20036;-66
2022/12/26 13:15:31;;;;;;;11.43;2.20;;;;;;;;;;5050108;28;20858;-66
2022/12/26 13:18:03;;;;;;;12.15;1.95;;;;;;;;;;5049679;28;20025;-66
2022/12/26 13:20:41;;;;;;;10.27;1.70;;;;;;;;;;5050297;28;20029;-66
2022/12/26 13:26:08;;;;;;;9.90;2.67;;;;;;;;;;5039585;28;20112;-66
2022/12/26 13:28:39;;;;;;;7.50;1.85;;;;;;;;;;5032617;28;20026;-66
2022/12/26 13:31:05;;;;;;;10.25;1.48;;;;;;;;;;5032676;28;20033;-66
2022/12/26 13:33:32;;;;;;;11.10;1.73;;;;;;;;;;5031720;28;20042;-66
2022/12/26 13:36:00;;;;;;;7.72;1.58;;;;;;;;;;5029724;28;20078;-66
2022/12/26 13:38:46;;;;;;;6.03;1.75;;;;;;;;;;5029795;28;20548;-66
2022/12/26 13:44:23;;;;;;;11.50;1.60;;;;;;;;;;5017881;28;20029;-66
2022/12/26 13:46:49;;;;;;;7.75;3.15;;;;;;;;;;5031544;28;20018;-67
2022/12/26 13:49:38;;;;;;;10.82;1.80;;;;;;;;;;5023048;28;20018;-67
2022/12/26 13:52:13;;;;;;;8.35;1.90;;;;;;;;;;5021562;28;20030;-67
2022/12/26 13:55:02;;;;;;;10.00;1.80;;;;;;;;;;5022089;28;20033;-66
2022/12/26 13:57:39;;;;;;;19.35;1.90;;;;;;;;;;5046443;28;20102;-66
2022/12/26 14:00:05;;;;;;;16.70;1.90;;;;;;;;;;5039474;28;20048;-66
2022/12/26 14:02:31;;;;;;;5.13;1.80;;;;;;;;;;5047003;28;20029;-66
2022/12/26 14:05:15;;;;;;;8.90;1.60;;;;;;;;;;5048783;28;20043;-66
2022/12/26 14:07:41;;;;;;;8.05;1.75;;;;;;;;;;5046246;28;20031;-66
2022/12/26 14:10:28;;;;;;;10.02;1.70;;;;;;;;;;5047044;28;20041;-66
2022/12/26 14:12:59;;;;;;;10.98;1.80;;;;;;;;;;5046665;28;20075;-66
2022/12/26 14:15:29;;;;;;;13.10;2.17;;;;;;;;;;5047404;28;20041;-66
2022/12/26 14:18:14;;;;;;;7.72;1.98;;;;;;;;;;5039779;28;20091;-66
2022/12/26 14:20:49;;;;;;;10.45;1.75;;;;;;;;;;5046591;28;20029;-66
2022/12/26 14:23:25;;;;;;;14.43;2.10;;;;;;;;;;5046130;28;20512;-66
2022/12/26 14:26:00;;;;;;;8.40;1.80;;;;;;;;;;5042631;28;20036;-66
2022/12/26 14:28:45;;;;;;;12.05;2.88;;;;;;;;;;5042356;28;20048;-66
2022/12/26 14:31:16;;;;;;;9.57;1.75;;;;;;;;;;5047827;28;20104;-66
2022/12/26 14:33:45;;;;;;;7.38;2.40;;;;;;;;;;5040069;28;20049;-66
2022/12/26 14:36:11;;;;;;;12.98;2.33;;;;;;;;;;5015785;28;20117;-66
2022/12/26 14:38:56;;;;;;;7.47;1.50;;;;;;;;;;5027125;28;20116;-66
2022/12/26 14:44:10;;;;;;;10.45;1.90;;;;;;;;;;5018997;28;20030;-66
2022/12/26 14:46:37;;;;;;;10.38;1.95;;;;;;;;;;5028768;28;20013;-66
2022/12/26 14:49:18;;;;;;;8.90;1.75;;;;;;;;;;5019908;28;20042;-66
2022/12/26 14:51:45;;;;;;;11.85;2.13;;;;;;;;;;5027711;28;20045;-66
2022/12/26 14:54:33;;;;;;;11.45;2.00;;;;;;;;;;5023926;28;20068;-66
2022/12/26 14:57:00;;;;;;;12.40;2.45;;;;;;;;;;5017976;28;20544;-66
2022/12/26 14:59:33;;;;;;;8.93;2.10;;;;;;;;;;5023997;28;20014;-66
2022/12/26 15:02:11;;;;;;;8.23;2.45;;;;;;;;;;5020878;28;20018;-66
2022/12/26 15:04:50;;;;;;;11.50;2.38;;;;;;;;;;5027109;28;20021;-66
2022/12/26 15:07:40;;;;;;;9.90;2.60;;;;;;;;;;5022027;28;20064;-66
2022/12/26 15:10:25;;;;;;;7.50;2.45;;;;;;;;;;5024005;28;20021;-66
2022/12/26 15:13:00;;;;;;;7.97;1.80;;;;;;;;;;5015820;28;20482;-67
2022/12/26 15:15:37;;;;;;;6.85;1.48;;;;;;;;;;5024186;28;20036;-67
2022/12/26 15:18:23;;;;;;;3.20;1.33;;;;;;;;;;5027161;28;20045;-67
2022/12/26 15:20:52;;;;;;;6.95;1.70;;;;;;;;;;5021413;28;20049;-67
2022/12/26 15:23:27;;;;;;;7.18;1.73;;;;;;;;;;5015226;28;20014;-67
2022/12/26 15:26:11;;;;;;;10.88;1.63;;;;;;;;;;5019315;28;20056;-67
2022/12/26 15:29:03;;;;;;;16.52;4.22;;;;;;;;;;5024554;28;20096;-67
2022/12/26 15:31:29;;;;;;;10.57;2.75;;;;;;;;;;5020356;28;20033;-66
2022/12/26 15:34:10;;;;;;;11.98;3.40;;;;;;;;;;5031614;28;20063;-66
2022/12/26 15:36:55;;;;;;;16.27;3.63;;;;;;;;;;5029094;28;20037;-65
2022/12/26 15:39:40;;;;;;;7.05;2.22;;;;;;;;;;5028971;28;20122;-65
2022/12/26 15:42:25;;;;;;;13.55;2.10;;;;;;;;;;5031734;28;20033;-65
2022/12/26 15:44:51;;;;;;;16.27;2.83;;;;;;;;;;5028210;28;21350;-65
2022/12/26 15:47:20;;;;;;;22.58;4.88;;;;;;;;;;5031900;28;20014;-65
2022/12/26 15:49:52;;;;;;;10.77;2.40;;;;;;;;;;5023008;28;20032;-65
2022/12/26 15:52:18;;;;;;;8.20;2.20;;;;;;;;;;5029018;28;20116;-65
2022/12/26 15:54:44;;;;;;;13.75;2.10;;;;;;;;;;5031024;28;20036;-65
2022/12/26 15:57:19;;;;;;;11.70;1.92;;;;;;;;;;5031039;28;20137;-65
2022/12/26 15:59:53;;;;;;;6.82;2.10;;;;;;;;;;5027675;28;20025;-65
2022/12/26 16:02:24;;;;;;;9.00;2.00;;;;;;;;;;5032718;28;20125;-65
2022/12/26 16:04:53;;;;;;;8.52;2.03;;;;;;;;;;5028968;28;20026;-65
2022/12/26 16:07:31;;;;;;;14.32;2.00;;;;;;;;;;5027217;28;20493;-65
2022/12/26 16:09:57;;;;;;;9.75;2.08;;;;;;;;;;5030267;28;20626;-65
2022/12/26 16:12:27;;;;;;;15.82;3.15;;;;;;;;;;5030034;28;20116;-65
2022/12/26 16:15:01;;;;;;;10.43;2.42;;;;;;;;;;5029599;28;20025;-65
2022/12/26 16:17:28;;;;;;;12.20;2.53;;;;;;;;;;5027780;28;20025;-65
2022/12/26 16:19:54;;;;;;;11.00;2.05;;;;;;;;;;5018776;28;20057;-65
2022/12/26 16:25:06;;;;;;;8.20;2.60;;;;;;;;;;5020743;28;20026;-65
2022/12/26 16:27:32;;;;;;;13.60;2.83;;;;;;;;;;5023946;28;20079;-65
2022/12/26 16:30:01;;;;;;;5.13;1.65;;;;;;;;;;5019083;28;20033;-65
2022/12/26 16:32:33;;;;;;;7.32;2.67;;;;;;;;;;5020023;28;20026;-65
2022/12/26 16:35:00;;;;;;;8.85;1.60;;;;;;;;;;5017196;28;20054;-66
2022/12/26 16:37:26;;;;;;;9.18;1.80;;;;;;;;;;5019771;28;20113;-66
2022/12/26 16:40:17;;;;;;;10.07;1.90;;;;;;;;;;5023614;28;20065;-66
2022/12/26 16:42:44;;;;;;;7.95;2.17;;;;;;;;;;5023276;28;20060;-66
2022/12/26 16:45:17;;;;;;;6.80;3.22;;;;;;;;;;5025562;28;20104;-66
2022/12/26 16:47:44;;;;;;;10.77;2.55;;;;;;;;;;5034528;28;20061;-66
2022/12/26 16:50:19;;;;;;;7.38;2.28;;;;;;;;;;5031637;28;20021;-66
2022/12/26 16:52:45;;;;;;;11.40;1.98;;;;;;;;;;5028685;28;20051;-66
2022/12/26 16:55:32;;;;;;;5.43;2.28;;;;;;;;;;5033558;28;20093;-66
2022/12/26 16:58:01;;;;;;;14.02;2.47;;;;;;;;;;5032605;28;20030;-66
2022/12/26 17:00:27;;;;;;;10.40;3.20;;;;;;;;;;5020921;28;20032;-66
2022/12/26 17:02:58;;;;;;;12.45;3.40;;;;;;;;;;5027680;28;20029;-66
2022/12/26 17:05:28;;;;;;;23.95;6.57;;;;;;;;;;5022625;28;20126;-66